sensor_id;sensor_type;location;lat;lon;timestamp;pressure;altitude;pressure_sealevel;temperature;humidity
20455;BME280;10386;54.314;10.022;2023-04-29T00:01:19;101253.72;;;8.24;100.00
20455;BME280;10386;54.314;10.022;2023-04-29T00:03:46;101261.50;;;8.13;100.00
20455;BME280;10386;54.314;10.022;2023-04-29T00:06:13;101254.53;;;8.09;100.00
20455;BME280;10386;54.314;10.022;2023-04-29T00:08:40;101257.03;;;8.29;100.00
20455;BME280;10386;54.314;10.022;2023-04-29T00:11:07;101250.22;;;8.22;100.00
20455;BME280;10386;54.314;10.022;2023-04-29T00:13:36;101252.06;;;8.37;100.00
20455;BME280;10386;54.314;10.022;2023-04-29T00:16:07;101241.63;;;8.14;100.00
20455;BME280;10386;54.314;10.022;2023-04-29T00:18:34;101252.59;;;8.11;100.00
20455;BME280;10386;54.314;10.022;2023-04-29T00:21:03;101240.94;;;8.11;100.00
20455;BME280;10386;54.314;10.022;2023-04-29T00:23:32;101228.63;;;8.37;100.00
20455;BME280;10386;54.314;10.022;2023-04-29T00:25:59;101228.69;;;8.36;100.00
20455;BME280;10386;54.314;10.022;2023-04-29T00:28:26;101227.41;;;8.11;100.00
20455;BME280;10386;54.314;10.022;2023-04-29T00:30:53;101234.75;;;8.09;100.00
20455;BME280;10386;54.314;10.022;2023-04-29T00:33:21;101233.66;;;8.28;100.00
20455;BME280;10386;54.314;10.022;2023-04-29T00:35:48;101242.03;;;8.07;100.00
20455;BME280;10386;54.314;10.022;2023-04-29T00:38:15;101251.69;;;7.95;100.00
20455;BME280;10386;54.314;10.022;2023-04-29T00:40:42;101249.66;;;7.83;100.00
20455;BME280;10386;54.314;10.022;2023-04-29T00:43:09;101258.00;;;7.79;100.00
20455;BME280;10386;54.314;10.022;2023-04-29T00:45:36;101264.13;;;7.82;100.00
20455;BME280;10386;54.314;10.022;2023-04-29T00:48:03;101258.09;;;7.77;100.00
20455;BME280;10386;54.314;10.022;2023-04-29T00:50:29;101262.59;;;7.77;100.00
20455;BME280;10386;54.314;10.022;2023-04-29T00:52:56;101264.03;;;7.67;100.00
20455;BME280;10386;54.314;10.022;2023-04-29T00:55:23;101255.38;;;7.60;100.00
20455;BME280;10386;54.314;10.022;2023-04-29T00:57:51;101261.91;;;7.56;100.00
20455;BME280;10386;54.314;10.022;2023-04-29T01:00:18;101261.25;;;7.51;100.00
20455;BME280;10386;54.314;10.022;2023-04-29T01:02:45;101269.84;;;7.42;100.00
20455;BME280;10386;54.314;10.022;2023-04-29T01:05:13;101267.25;;;7.41;100.00
20455;BME280;10386;54.314;10.022;2023-04-29T01:08:13;101271.09;;;7.35;100.00
20455;BME280;10386;54.314;10.022;2023-04-29T01:10:49;101271.59;;;7.26;100.00
20455;BME280;10386;54.314;10.022;2023-04-29T01:13:29;101262.84;;;7.21;100.00
20455;BME280;10386;54.314;10.022;2023-04-29T01:16:01;101257.22;;;7.26;100.00
20455;BME280;10386;54.314;10.022;2023-04-29T01:18:42;101254.91;;;7.18;100.00
20455;BME280;10386;54.314;10.022;2023-04-29T01:21:11;101255.69;;;7.20;100.00
20455;BME280;10386;54.314;10.022;2023-04-29T01:23:38;101242.13;;;7.39;100.00
20455;BME280;10386;54.314;10.022;2023-04-29T01:26:05;101246.63;;;7.21;100.00
20455;BME280;10386;54.314;10.022;2023-04-29T01:29:00;101255.06;;;7.32;100.00
20455;BME280;10386;54.314;10.022;2023-04-29T01:31:40;101245.78;;;7.55;100.00
20455;BME280;10386;54.314;10.022;2023-04-29T01:34:21;101261.19;;;7.36;100.00
20455;BME280;10386;54.314;10.022;2023-04-29T01:37:01;101259.94;;;7.26;100.00
20455;BME280;10386;54.314;10.022;2023-04-29T01:39:49;101247.13;;;7.29;100.00
20455;BME280;10386;54.314;10.022;2023-04-29T01:44:54;101250.72;;;7.30;100.00
20455;BME280;10386;54.314;10.022;2023-04-29T01:47:23;101251.88;;;7.24;100.00
20455;BME280;10386;54.314;10.022;2023-04-29T01:49:50;101257.81;;;7.14;100.00
20455;BME280;10386;54.314;10.022;2023-04-29T01:52:17;101265.38;;;7.07;100.00
20455;BME280;10386;54.314;10.022;2023-04-29T01:54:44;101269.38;;;6.99;100.00
20455;BME280;10386;54.314;10.022;2023-04-29T01:57:11;101267.78;;;6.95;100.00
20455;BME280;10386;54.314;10.022;2023-04-29T01:59:38;101263.94;;;7.00;100.00
20455;BME280;10386;54.314;10.022;2023-04-29T02:02:05;101267.41;;;7.02;100.00
20455;BME280;10386;54.314;10.022;2023-04-29T02:04:32;101261.59;;;6.93;100.00
20455;BME280;10386;54.314;10.022;2023-04-29T02:07:00;101265.69;;;6.83;100.00
20455;BME280;10386;54.314;10.022;2023-04-29T02:09:27;101276.84;;;6.76;100.00
20455;BME280;10386;54.314;10.022;2023-04-29T02:11:53;101280.78;;;6.69;100.00
20455;BME280;10386;54.314;10.022;2023-04-29T02:14:20;101278.84;;;6.72;100.00
20455;BME280;10386;54.314;10.022;2023-04-29T02:16:47;101286.19;;;6.69;100.00
20455;BME280;10386;54.314;10.022;2023-04-29T02:19:14;101284.59;;;6.65;100.00
20455;BME280;10386;54.314;10.022;2023-04-29T02:21:40;101278.09;;;6.69;100.00
20455;BME280;10386;54.314;10.022;2023-04-29T02:24:07;101267.59;;;6.63;100.00
20455;BME280;10386;54.314;10.022;2023-04-29T02:26:34;101281.38;;;6.57;100.00
20455;BME280;10386;54.314;10.022;2023-04-29T02:29:01;101274.25;;;6.56;100.00
20455;BME280;10386;54.314;10.022;2023-04-29T02:31:29;101278.53;;;6.60;100.00
20455;BME280;10386;54.314;10.022;2023-04-29T02:33:56;101262.34;;;6.60;100.00
20455;BME280;10386;54.314;10.022;2023-04-29T02:36:22;101252.53;;;6.59;100.00
20455;BME280;10386;54.314;10.022;2023-04-29T02:38:50;101255.06;;;6.62;100.00
20455;BME280;10386;54.314;10.022;2023-04-29T02:41:21;101245.97;;;6.64;100.00
20455;BME280;10386;54.314;10.022;2023-04-29T02:43:48;101250.41;;;6.65;100.00
20455;BME280;10386;54.314;10.022;2023-04-29T02:46:15;101240.34;;;6.69;100.00
20455;BME280;10386;54.314;10.022;2023-04-29T02:48:44;101228.69;;;6.68;100.00
20455;BME280;10386;54.314;10.022;2023-04-29T02:51:11;101223.84;;;6.75;100.00
20455;BME280;10386;54.314;10.022;2023-04-29T02:53:37;101225.59;;;6.76;100.00
20455;BME280;10386;54.314;10.022;2023-04-29T02:56:04;101232.72;;;6.77;100.00
20455;BME280;10386;54.314;10.022;2023-04-29T02:58:32;101230.94;;;6.77;100.00
20455;BME280;10386;54.314;10.022;2023-04-29T03:00:58;101229.09;;;6.78;100.00
20455;BME280;10386;54.314;10.022;2023-04-29T03:03:25;101239.00;;;6.77;100.00
20455;BME280;10386;54.314;10.022;2023-04-29T03:05:52;101236.22;;;6.78;100.00
20455;BME280;10386;54.314;10.022;2023-04-29T03:08:19;101234.22;;;6.83;100.00
20455;BME280;10386;54.314;10.022;2023-04-29T03:10:45;101228.50;;;6.89;100.00
20455;BME280;10386;54.314;10.022;2023-04-29T03:13:12;101222.84;;;6.94;100.00
20455;BME280;10386;54.314;10.022;2023-04-29T03:15:39;101227.47;;;6.92;100.00
20455;BME280;10386;54.314;10.022;2023-04-29T03:18:06;101228.84;;;7.00;100.00
20455;BME280;10386;54.314;10.022;2023-04-29T03:20:33;101219.78;;;7.01;100.00
20455;BME280;10386;54.314;10.022;2023-04-29T03:23:00;101221.69;;;6.99;100.00
20455;BME280;10386;54.314;10.022;2023-04-29T03:25:27;101229.78;;;6.99;100.00
20455;BME280;10386;54.314;10.022;2023-04-29T03:27:54;101229.78;;;6.99;100.00
20455;BME280;10386;54.314;10.022;2023-04-29T03:30:21;101242.34;;;7.00;100.00
20455;BME280;10386;54.314;10.022;2023-04-29T03:32:48;101251.13;;;7.04;100.00
20455;BME280;10386;54.314;10.022;2023-04-29T03:35:15;101241.56;;;7.15;100.00
20455;BME280;10386;54.314;10.022;2023-04-29T03:37:41;101255.38;;;7.09;100.00
20455;BME280;10386;54.314;10.022;2023-04-29T03:40:10;101252.41;;;7.14;100.00
20455;BME280;10386;54.314;10.022;2023-04-29T03:42:37;101254.97;;;7.17;100.00
20455;BME280;10386;54.314;10.022;2023-04-29T03:45:04;101252.19;;;7.18;100.00
20455;BME280;10386;54.314;10.022;2023-04-29T03:47:32;101255.69;;;7.20;100.00
20455;BME280;10386;54.314;10.022;2023-04-29T03:49:59;101260.78;;;7.26;100.00
20455;BME280;10386;54.314;10.022;2023-04-29T03:52:26;101261.09;;;7.37;100.00
20455;BME280;10386;54.314;10.022;2023-04-29T03:54:52;101252.22;;;7.35;100.00
20455;BME280;10386;54.314;10.022;2023-04-29T03:57:19;101256.03;;;7.31;100.00
20455;BME280;10386;54.314;10.022;2023-04-29T03:59:46;101262.06;;;7.36;100.00
20455;BME280;10386;54.314;10.022;2023-04-29T04:02:16;101263.66;;;7.40;100.00
20455;BME280;10386;54.314;10.022;2023-04-29T04:04:43;101260.56;;;7.48;100.00
20455;BME280;10386;54.314;10.022;2023-04-29T04:07:13;101258.88;;;7.45;100.00
20455;BME280;10386;54.314;10.022;2023-04-29T04:09:39;101264.84;;;7.52;100.00
20455;BME280;10386;54.314;10.022;2023-04-29T04:12:06;101265.72;;;7.52;100.00
20455;BME280;10386;54.314;10.022;2023-04-29T04:14:33;101265.72;;;7.52;100.00
20455;BME280;10386;54.314;10.022;2023-04-29T04:17:00;101259.03;;;7.59;100.00
20455;BME280;10386;54.314;10.022;2023-04-29T04:19:26;101263.25;;;7.65;100.00
20455;BME280;10386;54.314;10.022;2023-04-29T04:21:54;101269.56;;;7.65;100.00
20455;BME280;10386;54.314;10.022;2023-04-29T04:24:22;101285.44;;;7.71;100.00
20455;BME280;10386;54.314;10.022;2023-04-29T04:26:48;101286.88;;;7.78;100.00
20455;BME280;10386;54.314;10.022;2023-04-29T04:29:15;101296.88;;;7.76;100.00
20455;BME280;10386;54.314;10.022;2023-04-29T04:31:42;101296.72;;;7.79;100.00
20455;BME280;10386;54.314;10.022;2023-04-29T04:34:12;101302.19;;;7.78;100.00
20455;BME280;10386;54.314;10.022;2023-04-29T04:36:39;101297.56;;;7.80;100.00
20455;BME280;10386;54.314;10.022;2023-04-29T04:39:06;101306.75;;;7.77;100.00
20455;BME280;10386;54.314;10.022;2023-04-29T04:41:33;101314.91;;;7.76;100.00
20455;BME280;10386;54.314;10.022;2023-04-29T04:44:01;101322.16;;;7.75;100.00
20455;BME280;10386;54.314;10.022;2023-04-29T04:46:28;101319.34;;;7.77;100.00
20455;BME280;10386;54.314;10.022;2023-04-29T04:48:55;101325.56;;;7.79;100.00
20455;BME280;10386;54.314;10.022;2023-04-29T04:51:21;101330.09;;;7.78;100.00
20455;BME280;10386;54.314;10.022;2023-04-29T04:53:48;101337.41;;;7.76;100.00
20455;BME280;10386;54.314;10.022;2023-04-29T04:56:15;101346.47;;;7.75;100.00
20455;BME280;10386;54.314;10.022;2023-04-29T04:58:41;101344.56;;;7.77;100.00
20455;BME280;10386;54.314;10.022;2023-04-29T05:01:08;101348.22;;;7.76;100.00
20455;BME280;10386;54.314;10.022;2023-04-29T05:03:35;101358.88;;;7.79;100.00
20455;BME280;10386;54.314;10.022;2023-04-29T05:06:02;101361.28;;;7.85;100.00
20455;BME280;10386;54.314;10.022;2023-04-29T05:08:30;101363.06;;;7.85;100.00
20455;BME280;10386;54.314;10.022;2023-04-29T05:10:56;101367.47;;;7.87;100.00
20455;BME280;10386;54.314;10.022;2023-04-29T05:13:24;101369.91;;;7.92;100.00
20455;BME280;10386;54.314;10.022;2023-04-29T05:15:53;101382.41;;;7.94;100.00
20455;BME280;10386;54.314;10.022;2023-04-29T05:18:20;101382.25;;;7.97;100.00
20455;BME280;10386;54.314;10.022;2023-04-29T05:20:47;101382.88;;;8.02;100.00
20455;BME280;10386;54.314;10.022;2023-04-29T05:23:13;101378.91;;;8.09;100.00
20455;BME280;10386;54.314;10.022;2023-04-29T05:25:40;101386.16;;;8.09;100.00
20455;BME280;10386;54.314;10.022;2023-04-29T05:28:07;101392.88;;;8.19;100.00
20455;BME280;10386;54.314;10.022;2023-04-29T05:30:34;101389.22;;;8.20;100.00
20455;BME280;10386;54.314;10.022;2023-04-29T05:33:03;101388.72;;;8.28;100.00
20455;BME280;10386;54.314;10.022;2023-04-29T05:35:30;101385.28;;;8.25;100.00
20455;BME280;10386;54.314;10.022;2023-04-29T05:37:57;101395.78;;;8.31;100.00
20455;BME280;10386;54.314;10.022;2023-04-29T05:40:24;101404.03;;;8.45;100.00
20455;BME280;10386;54.314;10.022;2023-04-29T05:42:50;101407.31;;;8.51;100.00
20455;BME280;10386;54.314;10.022;2023-04-29T05:45:17;101406.19;;;8.55;100.00
20455;BME280;10386;54.314;10.022;2023-04-29T05:47:44;101423.22;;;8.57;100.00
20455;BME280;10386;54.314;10.022;2023-04-29T05:50:11;101425.31;;;8.85;100.00
20455;BME280;10386;54.314;10.022;2023-04-29T05:52:38;101441.88;;;8.79;100.00
20455;BME280;10386;54.314;10.022;2023-04-29T05:55:04;101447.91;;;8.84;100.00
20455;BME280;10386;54.314;10.022;2023-04-29T05:57:31;101455.59;;;8.91;100.00
20455;BME280;10386;54.314;10.022;2023-04-29T05:59:58;101455.91;;;9.02;100.00
20455;BME280;10386;54.314;10.022;2023-04-29T06:02:26;101464.06;;;9.18;100.00
20455;BME280;10386;54.314;10.022;2023-04-29T06:04:53;101469.91;;;9.26;100.00
20455;BME280;10386;54.314;10.022;2023-04-29T06:07:20;101490.00;;;9.22;100.00
20455;BME280;10386;54.314;10.022;2023-04-29T06:09:47;101497.91;;;9.26;100.00
20455;BME280;10386;54.314;10.022;2023-04-29T06:12:15;101500.91;;;9.53;100.00
20455;BME280;10386;54.314;10.022;2023-04-29T06:14:41;101516.97;;;9.40;100.00
20455;BME280;10386;54.314;10.022;2023-04-29T06:17:08;101520.06;;;9.65;100.00
20455;BME280;10386;54.314;10.022;2023-04-29T06:19:35;101524.34;;;9.84;100.00
20455;BME280;10386;54.314;10.022;2023-04-29T06:22:02;101532.06;;;10.07;100.00
20455;BME280;10386;54.314;10.022;2023-04-29T06:24:29;101542.38;;;10.32;100.00
20455;BME280;10386;54.314;10.022;2023-04-29T06:26:58;101550.69;;;10.29;100.00
20455;BME280;10386;54.314;10.022;2023-04-29T06:29:25;101560.34;;;10.19;100.00
20455;BME280;10386;54.314;10.022;2023-04-29T06:31:52;101571.81;;;10.24;100.00
20455;BME280;10386;54.314;10.022;2023-04-29T06:34:19;101579.16;;;10.96;100.00
20455;BME280;10386;54.314;10.022;2023-04-29T06:36:46;101590.91;;;10.97;100.00
20455;BME280;10386;54.314;10.022;2023-04-29T06:39:13;101591.03;;;12.35;100.00
20455;BME280;10386;54.314;10.022;2023-04-29T06:41:39;101607.47;;;13.37;100.00
20455;BME280;10386;54.314;10.022;2023-04-29T06:44:06;101635.84;;;13.97;100.00
20455;BME280;10386;54.314;10.022;2023-04-29T06:46:33;101649.50;;;14.22;100.00
20455;BME280;10386;54.314;10.022;2023-04-29T06:49:00;101665.97;;;13.46;100.00
20455;BME280;10386;54.314;10.022;2023-04-29T06:51:26;101691.75;;;12.48;100.00
20455;BME280;10386;54.314;10.022;2023-04-29T06:53:54;101687.81;;;12.66;100.00
20455;BME280;10386;54.314;10.022;2023-04-29T06:56:21;101706.59;;;12.03;100.00
20455;BME280;10386;54.314;10.022;2023-04-29T06:58:48;101710.81;;;11.65;100.00
20455;BME280;10386;54.314;10.022;2023-04-29T07:01:14;101711.53;;;11.53;100.00
20455;BME280;10386;54.314;10.022;2023-04-29T07:03:42;101715.91;;;10.97;100.00
20455;BME280;10386;54.314;10.022;2023-04-29T07:06:09;101727.50;;;11.43;100.00
20455;BME280;10386;54.314;10.022;2023-04-29T07:08:36;101723.13;;;11.11;100.00
20455;BME280;10386;54.314;10.022;2023-04-29T07:11:03;101727.44;;;11.00;100.00
20455;BME280;10386;54.314;10.022;2023-04-29T07:13:29;101728.88;;;10.92;100.00
20455;BME280;10386;54.314;10.022;2023-04-29T07:15:57;101729.72;;;10.92;100.00
20455;BME280;10386;54.314;10.022;2023-04-29T07:18:23;101727.66;;;10.82;100.00
20455;BME280;10386;54.314;10.022;2023-04-29T07:20:50;101736.50;;;10.85;100.00
20455;BME280;10386;54.314;10.022;2023-04-29T07:23:21;101747.47;;;10.84;100.00
20455;BME280;10386;54.314;10.022;2023-04-29T07:25:48;101728.94;;;10.90;100.00
20455;BME280;10386;54.314;10.022;2023-04-29T07:28:15;101742.78;;;10.55;100.00
20455;BME280;10386;54.314;10.022;2023-04-29T07:30:41;101750.25;;;10.98;100.00
20455;BME280;10386;54.314;10.022;2023-04-29T07:33:11;101751.22;;;11.12;100.00
20455;BME280;10386;54.314;10.022;2023-04-29T07:35:38;101749.72;;;11.06;100.00
20455;BME280;10386;54.314;10.022;2023-04-29T07:38:07;101752.78;;;11.16;100.00
20455;BME280;10386;54.314;10.022;2023-04-29T07:40:33;101749.19;;;11.00;100.00
20455;BME280;10386;54.314;10.022;2023-04-29T07:43:00;101743.19;;;11.24;100.00
20455;BME280;10386;54.314;10.022;2023-04-29T07:45:30;101743.91;;;11.12;100.00
20455;BME280;10386;54.314;10.022;2023-04-29T07:47:57;101744.31;;;11.36;100.00
20455;BME280;10386;54.314;10.022;2023-04-29T07:50:23;101744.84;;;11.86;100.00
20455;BME280;10386;54.314;10.022;2023-04-29T07:52:51;101751.25;;;11.85;100.00
20455;BME280;10386;54.314;10.022;2023-04-29T07:55:18;101743.28;;;11.82;100.00
20455;BME280;10386;54.314;10.022;2023-04-29T07:57:44;101743.19;;;11.54;100.00
20455;BME280;10386;54.314;10.022;2023-04-29T08:00:11;101747.84;;;11.67;100.00
20455;BME280;10386;54.314;10.022;2023-04-29T08:02:38;101755.59;;;11.44;100.00
20455;BME280;10386;54.314;10.022;2023-04-29T08:05:06;101752.34;;;11.37;100.00
20455;BME280;10386;54.314;10.022;2023-04-29T08:07:33;101761.81;;;11.46;100.00
20455;BME280;10386;54.314;10.022;2023-04-29T08:10:00;101766.59;;;11.72;100.00
20455;BME280;10386;54.314;10.022;2023-04-29T08:12:27;101765.06;;;11.52;100.00
20455;BME280;10386;54.314;10.022;2023-04-29T08:14:54;101769.19;;;11.59;100.00
20455;BME280;10386;54.314;10.022;2023-04-29T08:17:21;101768.41;;;11.57;100.00
20455;BME280;10386;54.314;10.022;2023-04-29T08:19:48;101757.88;;;11.51;100.00
20455;BME280;10386;54.314;10.022;2023-04-29T08:22:16;101771.06;;;11.87;100.00
20455;BME280;10386;54.314;10.022;2023-04-29T08:24:42;101772.09;;;12.00;100.00
20455;BME280;10386;54.314;10.022;2023-04-29T08:27:10;101768.34;;;11.87;100.00
20455;BME280;10386;54.314;10.022;2023-04-29T08:29:37;101772.50;;;12.22;100.00
20455;BME280;10386;54.314;10.022;2023-04-29T08:32:04;101757.13;;;12.07;100.00
20455;BME280;10386;54.314;10.022;2023-04-29T08:34:32;101760.84;;;12.20;100.00
20455;BME280;10386;54.314;10.022;2023-04-29T08:37:02;101762.97;;;12.42;100.00
20455;BME280;10386;54.314;10.022;2023-04-29T08:39:29;101772.38;;;12.23;100.00
20455;BME280;10386;54.314;10.022;2023-04-29T08:41:57;101771.09;;;12.84;100.00
20455;BME280;10386;54.314;10.022;2023-04-29T08:44:25;101760.78;;;12.61;100.00
20455;BME280;10386;54.314;10.022;2023-04-29T08:46:53;101761.41;;;12.52;100.00
20455;BME280;10386;54.314;10.022;2023-04-29T08:49:21;101748.97;;;12.89;100.00
20455;BME280;10386;54.314;10.022;2023-04-29T08:51:48;101765.03;;;13.07;100.00
20455;BME280;10386;54.314;10.022;2023-04-29T08:54:17;101757.59;;;12.69;100.00
20455;BME280;10386;54.314;10.022;2023-04-29T08:56:44;101755.78;;;13.49;100.00
20455;BME280;10386;54.314;10.022;2023-04-29T08:59:14;101738.94;;;13.81;100.00
20455;BME280;10386;54.314;10.022;2023-04-29T09:01:42;101737.13;;;13.16;100.00
20455;BME280;10386;54.314;10.022;2023-04-29T09:06:46;101758.25;;;12.72;100.00
20455;BME280;10386;54.314;10.022;2023-04-29T09:09:14;101758.31;;;12.85;100.00
20455;BME280;10386;54.314;10.022;2023-04-29T09:11:41;101753.72;;;13.52;100.00
20455;BME280;10386;54.314;10.022;2023-04-29T09:14:08;101758.69;;;13.84;100.00
20455;BME280;10386;54.314;10.022;2023-04-29T09:16:35;101749.03;;;13.54;100.00
20455;BME280;10386;54.314;10.022;2023-04-29T09:19:03;101737.69;;;13.60;100.00
20455;BME280;10386;54.314;10.022;2023-04-29T09:21:30;101739.25;;;13.77;100.00
20455;BME280;10386;54.314;10.022;2023-04-29T09:24:01;101732.75;;;14.29;100.00
20455;BME280;10386;54.314;10.022;2023-04-29T09:26:46;101728.88;;;14.44;100.00
20455;BME280;10386;54.314;10.022;2023-04-29T09:29:14;101727.34;;;14.02;100.00
20455;BME280;10386;54.314;10.022;2023-04-29T09:31:44;101743.44;;;14.32;100.00
20455;BME280;10386;54.314;10.022;2023-04-29T09:34:12;101758.19;;;14.54;100.00
20455;BME280;10386;54.314;10.022;2023-04-29T09:36:44;101728.72;;;14.34;100.00
20455;BME280;10386;54.314;10.022;2023-04-29T09:39:19;101731.84;;;14.53;100.00
20455;BME280;10386;54.314;10.022;2023-04-29T09:44:24;101733.56;;;14.67;100.00
20455;BME280;10386;54.314;10.022;2023-04-29T09:46:55;101712.16;;;14.61;100.00
20455;BME280;10386;54.314;10.022;2023-04-29T09:49:30;101723.66;;;14.53;100.00
20455;BME280;10386;54.314;10.022;2023-04-29T09:51:59;101711.19;;;14.62;100.00
20455;BME280;10386;54.314;10.022;2023-04-29T09:54:29;101719.66;;;15.52;100.00
20455;BME280;10386;54.314;10.022;2023-04-29T09:56:58;101696.13;;;14.80;100.00
20455;BME280;10386;54.314;10.022;2023-04-29T09:59:25;101706.84;;;14.34;100.00
20455;BME280;10386;54.314;10.022;2023-04-29T10:01:57;101731.66;;;14.92;100.00
20455;BME280;10386;54.314;10.022;2023-04-29T10:04:26;101726.06;;;15.17;100.00
20455;BME280;10386;54.314;10.022;2023-04-29T10:06:54;101725.81;;;15.32;100.00
20455;BME280;10386;54.314;10.022;2023-04-29T10:09:22;101697.97;;;14.43;100.00
20455;BME280;10386;54.314;10.022;2023-04-29T10:11:50;101741.94;;;15.12;100.00
20455;BME280;10386;54.314;10.022;2023-04-29T10:14:19;101699.84;;;14.79;100.00
20455;BME280;10386;54.314;10.022;2023-04-29T10:16:58;101719.16;;;14.65;100.00
20455;BME280;10386;54.314;10.022;2023-04-29T10:22:11;101734.34;;;15.28;100.00
20455;BME280;10386;54.314;10.022;2023-04-29T10:24:43;101688.28;;;14.99;100.00
20455;BME280;10386;54.314;10.022;2023-04-29T10:27:11;101694.09;;;15.18;100.00
20455;BME280;10386;54.314;10.022;2023-04-29T10:29:39;101693.75;;;15.22;100.00
20455;BME280;10386;54.314;10.022;2023-04-29T10:32:08;101692.47;;;14.92;100.00
20455;BME280;10386;54.314;10.022;2023-04-29T10:34:38;101701.94;;;14.99;100.00
20455;BME280;10386;54.314;10.022;2023-04-29T10:37:09;101722.97;;;15.21;100.00
20455;BME280;10386;54.314;10.022;2023-04-29T10:39:51;101718.06;;;15.61;100.00
20455;BME280;10386;54.314;10.022;2023-04-29T10:42:42;101724.66;;;15.58;100.00
20455;BME280;10386;54.314;10.022;2023-04-29T10:48:12;101723.41;;;16.08;100.00
20455;BME280;10386;54.314;10.022;2023-04-29T10:53:14;101694.88;;;16.10;100.00
20455;BME280;10386;54.314;10.022;2023-04-29T10:55:42;101697.19;;;16.38;100.00
20455;BME280;10386;54.314;10.022;2023-04-29T10:58:40;101698.41;;;16.56;100.00
20455;BME280;10386;54.314;10.022;2023-04-29T11:01:09;101675.41;;;15.69;100.00
20455;BME280;10386;54.314;10.022;2023-04-29T11:03:54;101673.00;;;16.21;100.00
20455;BME280;10386;54.314;10.022;2023-04-29T11:11:47;101688.72;;;17.05;100.00
20455;BME280;10386;54.314;10.022;2023-04-29T11:14:20;101648.31;;;16.32;100.00
20455;BME280;10386;54.314;10.022;2023-04-29T11:16:50;101666.31;;;16.89;100.00
20455;BME280;10386;54.314;10.022;2023-04-29T11:19:17;101677.84;;;16.51;100.00
20455;BME280;10386;54.314;10.022;2023-04-29T11:21:45;101693.94;;;16.44;100.00
20455;BME280;10386;54.314;10.022;2023-04-29T11:24:13;101695.19;;;16.51;100.00
20455;BME280;10386;54.314;10.022;2023-04-29T11:26:42;101699.50;;;16.21;100.00
20455;BME280;10386;54.314;10.022;2023-04-29T11:29:09;101725.97;;;16.44;100.00
20455;BME280;10386;54.314;10.022;2023-04-29T11:31:37;101740.22;;;16.14;100.00
20455;BME280;10386;54.314;10.022;2023-04-29T11:34:06;101709.06;;;15.93;100.00
20455;BME280;10386;54.314;10.022;2023-04-29T11:36:33;101732.00;;;16.03;100.00
20455;BME280;10386;54.314;10.022;2023-04-29T11:39:02;101766.69;;;16.81;100.00
20455;BME280;10386;54.314;10.022;2023-04-29T11:41:29;101714.34;;;16.18;100.00
20455;BME280;10386;54.314;10.022;2023-04-29T11:43:58;101705.22;;;16.07;100.00
20455;BME280;10386;54.314;10.022;2023-04-29T11:46:25;101698.19;;;16.48;100.00
20455;BME280;10386;54.314;10.022;2023-04-29T11:48:56;101665.03;;;15.51;100.00
20455;BME280;10386;54.314;10.022;2023-04-29T11:51:25;101673.53;;;15.70;100.00
20455;BME280;10386;54.314;10.022;2023-04-29T11:53:52;101664.75;;;15.88;100.00
20455;BME280;10386;54.314;10.022;2023-04-29T11:56:21;101671.63;;;16.16;100.00
20455;BME280;10386;54.314;10.022;2023-04-29T11:58:57;101631.63;;;15.80;100.00
20455;BME280;10386;54.314;10.022;2023-04-29T12:01:26;101670.03;;;16.35;100.00
20455;BME280;10386;54.314;10.022;2023-04-29T12:03:57;101653.56;;;16.24;100.00
20455;BME280;10386;54.314;10.022;2023-04-29T12:06:29;101652.84;;;16.33;100.00
20455;BME280;10386;54.314;10.022;2023-04-29T12:08:58;101647.59;;;16.52;100.00
20455;BME280;10386;54.314;10.022;2023-04-29T12:11:25;101648.81;;;16.04;100.00
20455;BME280;10386;54.314;10.022;2023-04-29T12:13:52;101667.63;;;16.31;100.00
20455;BME280;10386;54.314;10.022;2023-04-29T12:16:20;101672.72;;;16.13;100.00
20455;BME280;10386;54.314;10.022;2023-04-29T12:18:51;101672.53;;;16.38;100.00
20455;BME280;10386;54.314;10.022;2023-04-29T12:21:18;101685.94;;;16.30;100.00
20455;BME280;10386;54.314;10.022;2023-04-29T12:23:47;101689.56;;;16.20;100.00
20455;BME280;10386;54.314;10.022;2023-04-29T12:26:14;101703.41;;;16.29;100.00
20455;BME280;10386;54.314;10.022;2023-04-29T12:28:41;101693.28;;;15.97;100.00
20455;BME280;10386;54.314;10.022;2023-04-29T12:31:08;101702.91;;;15.68;100.00
20455;BME280;10386;54.314;10.022;2023-04-29T12:33:37;101695.25;;;15.03;100.00
20455;BME280;10386;54.314;10.022;2023-04-29T12:36:03;101722.66;;;15.14;100.00
20455;BME280;10386;54.314;10.022;2023-04-29T12:38:41;101730.31;;;15.21;100.00
20455;BME280;10386;54.314;10.022;2023-04-29T12:41:08;101744.16;;;15.88;100.00
20455;BME280;10386;54.314;10.022;2023-04-29T12:43:36;101706.09;;;15.51;100.00
20455;BME280;10386;54.314;10.022;2023-04-29T12:46:06;101715.53;;;15.47;100.00
20455;BME280;10386;54.314;10.022;2023-04-29T12:48:36;101710.97;;;15.12;100.00
20455;BME280;10386;54.314;10.022;2023-04-29T12:51:04;101725.22;;;14.81;100.00
20455;BME280;10386;54.314;10.022;2023-04-29T12:53:32;101746.25;;;14.68;100.00
20455;BME280;10386;54.314;10.022;2023-04-29T12:55:58;101775.34;;;14.69;100.00
20455;BME280;10386;54.314;10.022;2023-04-29T12:58:28;101814.09;;;14.86;100.00
20455;BME280;10386;54.314;10.022;2023-04-29T13:00:56;101811.09;;;14.53;100.00
20455;BME280;10386;54.314;10.022;2023-04-29T13:03:23;101842.47;;;14.73;100.00